Time;durP1;ratioP1;P1;durP2;ratioP2;P2;SDS_P1;SDS_P2;PMS_P1;PMS_P2;Temp;Humidity;BMP_temperature;BMP_pressure;BME280_temperature;BME280_humidity;BME280_pressure;Samples;Min_cycle;Max_cycle;Signal;HPM_P1;HPM_P2
2024/01/13 07:01:52;;;;;;;0.60;0.60;;;4.80;99.90;6.30;102234.00;;;;6130280;22;1500584;-74
2024/01/13 07:04:44;;;;;;;1.77;1.67;;;4.80;99.90;5.70;102227.00;;;;6156099;23;20171;-72
2024/01/13 07:07:27;;;;;;;1.23;1.23;;;4.40;99.90;6.30;102165.00;;;;6115273;23;20601;-74
2024/01/13 07:10:22;;;;;;;0.30;0.30;;;4.40;99.90;6.60;102213.00;;;;6157835;23;20152;-74
2024/01/13 07:13:17;;;;;;;0.73;0.73;;;4.50;99.90;5.70;102151.00;;;;6155787;23;20186;-74
2024/01/13 07:16:08;;;;;;;1.17;1.10;;;4.40;99.90;6.70;102187.00;;;;6147874;23;20218;-74
2024/01/13 07:19:00;;;;;;;0.70;0.63;;;4.50;99.90;5.90;102196.00;;;;6155831;23;20141;-75
2024/01/13 07:21:41;;;;;;;0.67;0.67;;;4.50;99.90;6.40;102209.00;;;;6156305;23;20137;-74
2024/01/13 07:24:35;;;;;;;1.37;1.13;;;4.50;99.90;5.10;102192.00;;;;6157449;23;20160;-74
2024/01/13 07:27:15;;;;;;;2.10;1.90;;;4.30;99.90;5.90;102196.00;;;;6147375;23;20163;-74
2024/01/13 07:30:07;;;;;;;0.27;0.23;;;4.30;99.90;5.90;102190.00;;;;6155924;23;20166;-74
2024/01/13 07:32:59;;;;;;;1.27;1.17;;;4.40;99.90;5.80;102180.00;;;;6140725;23;20734;-75
2024/01/13 07:35:57;;;;;;;0.23;0.23;;;4.40;99.90;5.70;102166.00;;;;6157398;23;20162;-74
2024/01/13 07:38:46;;;;;;;8.33;4.30;;;4.40;99.90;5.90;102153.00;;;;6145734;23;20165;-74
2024/01/13 07:41:39;;;;;;;0.50;0.50;;;4.40;99.90;6.80;102166.00;;;;6042957;23;20163;-74
2024/01/13 07:44:18;;;;;;;1.67;1.57;;;4.70;99.90;6.70;102184.00;;;;5987114;23;20627;-74
2024/01/13 07:47:27;;;;;;;0.53;0.53;;;4.80;99.90;5.80;102175.00;;;;6065100;23;20509;-74
2024/01/13 07:50:19;;;;;;;0.83;0.80;;;4.50;99.90;6.30;102156.00;;;;6042909;23;20186;-74
2024/01/13 07:53:08;;;;;;;0.30;0.30;;;4.50;99.90;7.40;102153.00;;;;5986438;23;20245;-74
2024/01/13 07:55:58;;;;;;;0.20;0.20;;;4.80;99.90;6.90;102105.00;;;;5958667;23;20266;-74
2024/01/13 07:58:52;;;;;;;0.87;0.70;;;4.70;99.90;6.40;102137.00;;;;5926232;24;20288;-74
2024/01/13 08:01:41;;;;;;;1.23;1.13;;;4.70;99.90;6.60;102148.00;;;;6009267;23;20608;-74
2024/01/13 08:04:26;;;;;;;3.33;3.03;;;4.70;99.90;6.40;102152.00;;;;5925877;24;20335;-74
2024/01/13 08:07:16;;;;;;;0.50;0.50;;;4.80;99.90;6.80;102143.00;;;;5986257;23;20174;-74
2024/01/13 08:10:09;;;;;;;1.73;1.63;;;4.80;99.90;6.20;102157.00;;;;5937933;24;20176;-74
2024/01/13 08:13:07;;;;;;;0.80;0.80;;;4.80;99.90;7.50;102143.00;;;;5925999;24;20178;-74
2024/01/13 08:16:01;;;;;;;2.20;0.67;;;4.90;99.90;6.40;102119.00;;;;5977997;24;20679;-75
2024/01/13 08:19:00;;;;;;;2.83;1.80;;;4.80;99.90;6.00;102118.00;;;;6097083;23;20250;-74
2024/01/13 08:21:55;;;;;;;0.20;0.20;;;4.50;99.90;7.10;102098.00;;;;6157211;23;20149;-74
2024/01/13 08:24:40;;;;;;;5.00;3.97;;;4.60;99.90;5.90;102122.00;;;;6155826;23;20612;-74
2024/01/13 08:27:34;;;;;;;3.73;3.40;;;4.60;99.90;6.00;102119.00;;;;6180259;23;20613;-72
2024/01/13 08:30:23;;;;;;;1.67;1.57;;;4.50;99.90;6.80;102111.00;;;;6112118;23;20490;-74
2024/01/13 08:33:33;;;;;;;0.93;0.93;;;4.70;99.90;6.40;102135.00;;;;6066358;23;20251;-74
2024/01/13 08:36:30;;;;;;;3.93;2.70;;;4.80;99.90;5.50;102143.00;;;;6042361;23;20174;-74
2024/01/13 08:39:46;;;;;;;5.50;3.83;;;4.50;99.90;5.60;102137.00;;;;6042773;23;20152;-74
2024/01/13 08:42:41;;;;;;;5.97;3.33;;;4.20;99.90;5.50;102141.00;;;;6044037;23;20198;-74
2024/01/13 08:45:29;;;;;;;2.77;2.13;;;4.30;99.90;5.10;102132.00;;;;6147209;23;20172;-74
2024/01/13 08:48:04;;;;;;;5.90;5.13;;;4.10;99.90;5.70;102136.00;;;;6156621;23;20146;-76
2024/01/13 08:50:39;;;;;;;1.33;1.13;;;4.20;99.90;5.80;102062.00;;;;6155289;23;20610;-76
2024/01/13 08:53:11;;;;;;;5.60;5.20;;;4.30;99.90;6.00;102063.00;;;;6155041;23;20152;-75
2024/01/13 08:55:40;;;;;;;1.30;0.80;;;4.40;99.90;5.40;102131.00;;;;6155212;23;20147;-75
2024/01/13 08:58:06;;;;;;;1.03;0.90;;;4.20;99.90;6.10;102088.00;;;;6155300;23;20148;-74
2024/01/13 09:00:37;;;;;;;0.87;0.87;;;4.30;99.90;5.80;102138.00;;;;6155036;23;20681;-74
2024/01/13 09:03:12;;;;;;;5.33;3.23;;;4.50;99.90;5.40;102129.00;;;;6156619;23;20203;-73
2024/01/13 09:05:37;;;;;;;1.63;1.53;;;4.30;99.90;5.70;102131.00;;;;6155099;23;20550;-74
2024/01/13 09:08:11;;;;;;;3.53;3.20;;;4.30;99.90;6.30;102130.00;;;;6155101;23;20154;-74
2024/01/13 09:10:46;;;;;;;1.53;1.43;;;4.50;99.90;6.00;102141.00;;;;6156601;23;20238;-74
2024/01/13 09:13:49;;;;;;;5.10;4.60;;;4.50;99.90;5.30;102115.00;;;;6154552;23;20208;-74
2024/01/13 09:16:17;;;;;;;0.73;0.73;;;4.40;99.90;5.90;102102.00;;;;6154853;23;20560;-74
2024/01/13 09:18:46;;;;;;;2.90;2.70;;;4.40;99.90;7.50;102106.00;;;;6154977;23;20144;-74
2024/01/13 09:21:50;;;;;;;0.77;0.77;;;4.90;99.90;6.30;102069.00;;;;6155081;23;20138;-74
2024/01/13 09:24:25;;;;;;;0.70;0.40;;;4.90;99.90;5.80;102118.00;;;;6155278;23;20559;-74
2024/01/13 09:26:51;;;;;;;4.40;2.80;;;4.50;99.90;6.90;102126.00;;;;6155083;23;20147;-74
2024/01/13 09:29:18;;;;;;;1.27;1.17;;;4.70;99.90;6.30;102137.00;;;;6154724;23;20146;-73
2024/01/13 09:32:44;;;;;;;6.30;4.97;;;4.60;99.90;6.80;102149.00;;;;6155300;23;20156;-74
2024/01/13 09:35:10;;;;;;;5.33;2.40;;;5.00;99.90;6.50;102138.00;;;;6154447;23;20163;-74
2024/01/13 09:37:40;;;;;;;4.47;3.40;;;4.90;99.90;6.20;102139.00;;;;6156147;23;20143;-74
2024/01/13 09:40:19;;;;;;;7.37;5.40;;;4.70;99.90;7.10;102151.00;;;;6155435;23;20161;-74
2024/01/13 09:43:09;;;;;;;1.70;1.60;;;4.90;99.90;5.90;102135.00;;;;6153885;23;20216;-74
2024/01/13 09:46:05;;;;;;;2.93;2.67;;;4.60;99.90;6.50;102128.00;;;;6156382;23;20153;-73
2024/01/13 09:48:48;;;;;;;2.77;2.57;;;4.60;99.90;6.40;102142.00;;;;6154806;23;20165;-74
2024/01/13 09:51:21;;;;;;;3.97;3.60;;;4.60;99.90;5.80;102127.00;;;;6155045;23;20149;-73
2024/01/13 09:54:06;;;;;;;1.03;1.03;;;4.50;99.90;6.20;102130.00;;;;6154311;23;20645;-74
2024/01/13 09:56:58;;;;;;;1.80;1.70;;;4.60;99.90;6.20;102142.00;;;;6153867;23;20161;-73
2024/01/13 09:59:40;;;;;;;2.77;1.90;;;4.60;99.90;6.20;102125.00;;;;6134139;23;20231;-74
2024/01/13 10:02:43;;;;;;;0.50;0.50;;;4.50;99.90;6.50;102137.00;;;;6154872;23;20180;-74
2024/01/13 10:05:56;;;;;;;5.30;3.63;;;4.70;99.90;5.10;102125.00;;;;6124402;23;20221;-73
2024/01/13 10:09:03;;;;;;;6.90;1.63;;;4.50;99.90;6.30;102127.00;;;;6155785;23;20145;-73
2024/01/13 10:12:10;;;;;;;4.10;3.73;;;4.50;99.90;5.90;102114.00;;;;6126928;23;20173;-74
2024/01/13 10:15:19;;;;;;;2.83;2.17;;;4.50;99.90;6.10;102136.00;;;;6154528;23;20157;-74
2024/01/13 10:18:01;;;;;;;2.73;2.53;;;4.60;99.90;6.40;102142.00;;;;6157767;23;20625;-74
2024/01/13 10:20:44;;;;;;;0.50;0.50;;;4.70;99.90;5.90;102131.00;;;;6155294;23;20192;-73
2024/01/13 10:33:48;;;;;;;6.17;5.67;;;4.00;99.90;5.40;102115.00;;;;5070212;28;20555;-72
2024/01/13 10:37:09;;;;;;;3.77;2.53;;;4.20;99.90;6.20;102095.00;;;;5065615;28;20280;-72
2024/01/13 10:39:48;;;;;;;0.60;0.60;;;4.40;99.90;6.00;102087.00;;;;5004286;28;20614;-72
2024/01/13 10:42:34;;;;;;;2.90;2.60;;;4.50;99.90;5.40;102070.00;;;;4981851;28;20651;-77
2024/01/13 10:45:24;;;;;;;0.20;0.20;;;4.40;99.90;5.80;102046.00;;;;5033384;28;20191;-71
2024/01/13 10:48:39;;;;;;;9.87;4.53;;;4.40;99.90;5.80;102065.00;;;;5048757;28;20323;-72
2024/01/13 10:51:29;;;;;;;1.47;1.30;;;4.50;99.90;6.20;102062.00;;;;5045104;28;20179;-71
2024/01/13 10:54:45;;;;;;;1.53;1.43;;;4.60;99.90;6.40;102059.00;;;;5046319;28;20184;-71
2024/01/13 10:57:55;;;;;;;0.50;0.50;;;4.80;99.90;6.70;102057.00;;;;5057003;28;20267;-71
2024/01/13 11:00:40;;;;;;;3.53;3.20;;;4.80;99.90;6.30;102057.00;;;;5048734;28;20553;-71
2024/01/13 11:03:14;;;;;;;4.30;2.83;;;4.80;99.90;6.10;102041.00;;;;5046682;28;20197;-72
2024/01/13 11:05:48;;;;;;;3.13;2.90;;;4.60;99.90;6.20;102012.00;;;;5048163;28;20605;-71
2024/01/13 11:08:44;;;;;;;8.87;6.70;;;4.70;99.90;5.50;102043.00;;;;5065357;28;20195;-71
2024/01/13 11:11:50;;;;;;;3.50;1.70;;;4.60;99.90;6.00;102041.00;;;;5042355;28;20644;-71
2024/01/13 11:14:38;;;;;;;5.20;3.90;;;4.60;99.90;5.60;101985.00;;;;5053673;28;20511;-71
2024/01/13 11:17:16;;;;;;;0.30;0.30;;;4.50;99.90;6.50;101978.00;;;;5048413;28;20181;-72
2024/01/13 11:19:47;;;;;;;8.63;6.67;;;4.60;99.90;5.80;101971.00;;;;5048401;28;20184;-72
2024/01/13 11:23:41;;;;;;;6.67;4.50;;;4.70;99.90;5.90;102020.00;;;;5050138;28;20250;-71
2024/01/13 11:26:48;;;;;;;4.60;4.20;;;4.60;99.90;6.20;102034.00;;;;4999985;28;20205;-72
2024/01/13 11:30:02;;;;;;;7.40;5.90;;;4.70;99.90;5.80;102035.00;;;;4985227;28;20214;-75
2024/01/13 11:33:00;;;;;;;3.17;2.43;;;4.70;99.90;5.80;102034.00;;;;4895398;29;20303;-75
2024/01/13 11:35:56;;;;;;;5.27;4.10;;;4.60;99.90;6.20;102034.00;;;;4933850;28;20207;-75
2024/01/13 11:39:05;;;;;;;1.67;1.57;;;4.60;99.90;6.00;102032.00;;;;4951366;28;20194;-75
2024/01/13 11:42:07;;;;;;;3.27;3.03;;;4.70;99.90;6.30;101976.00;;;;4944419;28;20231;-76
2024/01/13 11:45:15;;;;;;;6.93;4.83;;;4.80;99.90;5.90;102017.00;;;;4949713;28;20233;-75
2024/01/13 11:48:32;;;;;;;3.10;2.57;;;4.70;99.90;6.40;102033.00;;;;4929392;29;20242;-76
2024/01/13 11:51:12;;;;;;;9.20;6.43;;;4.80;99.90;6.20;102015.00;;;;5029167;28;20214;-75
2024/01/13 11:53:49;;;;;;;0.67;0.67;;;4.90;99.90;6.40;101957.00;;;;5049967;28;20650;-75
2024/01/13 11:56:48;;;;;;;7.40;3.87;;;4.80;99.90;6.40;102023.00;;;;5050876;28;20193;-73
2024/01/13 11:59:49;;;;;;;6.47;5.90;;;4.90;99.90;5.80;102020.00;;;;5013723;28;20201;-76
2024/01/13 12:02:21;;;;;;;4.70;4.13;;;4.70;99.90;5.60;101983.00;;;;5022218;28;20201;-76
2024/01/13 12:04:49;;;;;;;8.53;6.07;;;4.50;99.90;5.20;102002.00;;;;5031332;28;20291;-77
2024/01/13 12:07:24;;;;;;;12.53;8.53;;;4.40;99.90;6.30;101935.00;;;;5033856;28;20179;-77
2024/01/13 12:09:56;;;;;;;2.40;2.20;;;4.70;99.90;5.80;101994.00;;;;5033924;28;20639;-77
2024/01/13 12:12:27;;;;;;;7.30;4.43;;;4.60;99.90;6.30;101988.00;;;;5028202;28;20214;-77
2024/01/13 12:14:54;;;;;;;4.70;2.83;;;4.70;99.90;6.40;101992.00;;;;5012360;28;20197;-77
2024/01/13 12:17:27;;;;;;;4.90;4.50;;;4.80;99.90;5.80;101992.00;;;;5034856;28;20222;-77
2024/01/13 12:19:57;;;;;;;1.70;1.07;;;4.70;99.90;5.80;101965.00;;;;5033932;28;20709;-77
2024/01/13 12:22:37;;;;;;;12.63;7.13;;;4.50;99.90;6.10;101916.00;;;;5034912;28;20694;-77
2024/01/13 12:25:13;;;;;;;8.07;6.00;;;4.70;99.90;5.50;101975.00;;;;5041287;28;20275;-68
2024/01/13 12:28:21;;;;;;;6.10;3.20;;;4.60;99.90;5.60;101983.00;;;;5033647;28;20207;-77
2024/01/13 12:31:11;;;;;;;10.80;7.00;;;4.60;99.90;6.60;101899.00;;;;5026497;28;20188;-78
2024/01/13 12:34:38;;;;;;;5.33;3.40;;;4.80;99.90;6.00;101964.00;;;;5017499;28;20270;-78
2024/01/13 12:37:25;;;;;;;2.23;2.10;;;4.70;99.90;6.50;101973.00;;;;5033402;28;20187;-77
2024/01/13 12:39:51;;;;;;;3.13;2.93;;;4.80;99.90;6.40;101963.00;;;;5033461;28;20188;-77
2024/01/13 12:42:17;;;;;;;10.03;6.80;;;4.80;99.90;6.30;101965.00;;;;5016423;28;20195;-78
2024/01/13 12:44:45;;;;;;;4.90;4.00;;;4.80;99.90;6.00;101895.00;;;;5033193;28;20612;-77
2024/01/13 12:47:26;;;;;;;6.90;5.20;;;4.80;99.90;6.40;101935.00;;;;5033943;28;20184;-77
2024/01/13 12:49:56;;;;;;;2.50;2.40;;;4.80;99.90;6.80;101962.00;;;;5020690;28;20709;-77
2024/01/13 12:52:22;;;;;;;3.80;3.03;;;4.90;99.90;5.90;101889.00;;;;5038286;28;20215;-77
2024/01/13 12:54:55;;;;;;;3.43;3.10;;;4.70;99.90;5.80;101929.00;;;;5015530;28;20553;-77
2024/01/13 12:57:21;;;;;;;4.80;4.30;;;4.60;99.90;5.70;101954.00;;;;5041571;28;20545;-77
2024/01/13 12:59:47;;;;;;;10.50;5.73;;;4.40;99.90;6.60;101949.00;;;;5034309;28;20267;-77
2024/01/13 13:02:18;;;;;;;12.10;8.37;;;4.70;99.90;6.70;101912.00;;;;5028120;28;20197;-77
2024/01/13 13:04:54;;;;;;;12.00;7.53;;;4.90;99.90;6.40;101936.00;;;;5016850;28;20180;-77
2024/01/13 13:07:24;;;;;;;5.47;5.03;;;4.80;99.90;6.10;101947.00;;;;5015941;28;20546;-78
2024/01/13 13:09:59;;;;;;;3.00;2.70;;;4.70;99.90;6.20;101940.00;;;;5060457;28;20193;-77
2024/01/13 13:12:37;;;;;;;8.00;5.83;;;4.70;99.90;6.10;101929.00;;;;5031807;28;20216;-77
2024/01/13 13:15:11;;;;;;;12.00;8.53;;;4.70;99.90;6.80;101942.00;;;;5032844;28;20214;-77
2024/01/13 13:17:50;;;;;;;4.80;4.37;;;4.90;99.90;5.70;101931.00;;;;5034507;28;20185;-77
2024/01/13 13:20:32;;;;;;;6.23;5.20;;;4.60;99.90;5.80;101924.00;;;;5032434;28;20181;-77
2024/01/13 13:23:07;;;;;;;0.40;0.40;;;4.50;99.90;6.90;101945.00;;;;5030066;28;20239;-78
2024/01/13 13:25:38;;;;;;;4.23;3.77;;;4.80;99.90;6.10;101946.00;;;;5047722;28;20210;-78
2024/01/13 13:28:10;;;;;;;9.37;8.47;;;4.70;99.90;6.40;101937.00;;;;5036930;28;20679;-77
2024/01/13 13:30:46;;;;;;;9.83;5.77;;;4.80;99.90;6.80;101864.00;;;;5029554;28;20194;-77
2024/01/13 13:33:23;;;;;;;4.00;3.70;;;4.90;99.90;6.50;101931.00;;;;5033368;28;20214;-76
2024/01/13 13:35:58;;;;;;;5.00;4.33;;;5.00;99.90;6.50;101920.00;;;;5027361;28;20242;-76
2024/01/13 13:38:36;;;;;;;7.23;6.43;;;4.80;99.90;5.80;101907.00;;;;5032078;28;20194;-76
2024/01/13 13:41:13;;;;;;;8.57;5.97;;;4.60;99.90;5.70;101898.00;;;;5033985;28;20230;-75
2024/01/13 13:43:49;;;;;;;2.80;2.70;;;4.50;99.90;5.90;101887.00;;;;5024913;28;20192;-75
2024/01/13 13:46:23;;;;;;;7.00;4.70;;;4.60;99.90;6.00;101900.00;;;;5030720;28;20198;-75
2024/01/13 13:48:49;;;;;;;0.73;0.73;;;4.50;99.90;5.60;101901.00;;;;5030135;28;20184;-76
2024/01/13 13:51:21;;;;;;;17.00;9.93;;;4.40;99.90;5.80;101876.00;;;;5030029;28;20523;-75
2024/01/13 13:53:52;;;;;;;11.40;5.47;;;4.40;99.90;6.40;101900.00;;;;5021147;28;20188;-77
2024/01/13 13:56:33;;;;;;;7.90;5.97;;;4.70;99.90;5.60;101892.00;;;;5032208;28;20202;-77
2024/01/13 13:59:04;;;;;;;6.33;5.43;;;4.60;99.90;5.90;101831.00;;;;5038521;28;20186;-77
2024/01/13 14:01:36;;;;;;;6.87;6.23;;;4.60;99.90;6.90;101895.00;;;;5023959;28;20189;-76
2024/01/13 14:04:11;;;;;;;2.73;2.40;;;4.80;99.90;6.50;101873.00;;;;5014129;28;20274;-74
2024/01/13 14:06:45;;;;;;;0.20;0.20;;;4.80;99.90;7.10;101870.00;;;;5014226;28;20276;-76
2024/01/13 14:09:23;;;;;;;6.67;4.40;;;4.90;99.90;5.70;101802.00;;;;5031040;28;20186;-76
2024/01/13 14:12:00;;;;;;;3.87;3.63;;;4.70;99.90;6.30;101864.00;;;;5013094;28;20199;-76
2024/01/13 14:14:32;;;;;;;6.73;5.97;;;4.60;99.90;6.60;101880.00;;;;5025351;28;20817;-73
2024/01/13 14:16:58;;;;;;;8.30;5.73;;;4.70;99.90;6.70;101879.00;;;;5031227;28;20197;-78
2024/01/13 14:19:29;;;;;;;2.83;2.63;;;4.80;99.90;6.20;101830.00;;;;5023071;28;20230;-77
2024/01/13 14:22:04;;;;;;;6.33;4.17;;;4.70;99.90;6.00;101877.00;;;;5031919;28;20253;-78
2024/01/13 14:24:36;;;;;;;11.17;6.43;;;4.60;99.90;6.80;101874.00;;;;5045108;28;20185;-77
2024/01/13 14:27:14;;;;;;;2.03;1.90;;;4.80;99.90;6.30;101891.00;;;;5030073;28;20196;-78
2024/01/13 14:29:54;;;;;;;0.20;0.20;;;4.70;99.90;6.70;101870.00;;;;5029522;28;20635;-78
2024/01/13 14:32:29;;;;;;;4.90;4.37;;;4.80;99.90;6.30;101877.00;;;;5008273;28;20682;-76
2024/01/13 14:35:08;;;;;;;1.27;1.27;;;4.70;99.90;7.00;101884.00;;;;5058196;28;20182;-77
2024/01/13 14:37:43;;;;;;;5.60;4.67;;;5.00;99.90;6.80;101907.00;;;;5025765;28;20186;-77
2024/01/13 14:40:19;;;;;;;1.50;1.17;;;5.00;99.90;8.00;101897.00;;;;5030979;28;20279;-79
2024/01/13 14:42:56;;;;;;;1.33;1.23;;;5.30;99.90;8.60;101905.00;;;;5031523;28;20188;-79
2024/01/13 14:45:27;;;;;;;2.00;1.90;;;5.70;99.90;8.00;101921.00;;;;5033622;28;20189;-78
2024/01/13 14:48:05;;;;;;;0.60;0.60;;;5.70;99.90;8.40;101919.00;;;;5022479;28;20235;-79
2024/01/13 14:50:41;;;;;;;0.30;0.30;;;5.80;99.90;8.80;101925.00;;;;5020247;28;20189;-77
2024/01/13 14:53:16;;;;;;;0.97;0.97;;;5.90;99.90;9.40;101877.00;;;;5028525;28;20306;-77
2024/01/13 14:55:51;;;;;;;3.13;1.33;;;6.20;99.90;8.60;101917.00;;;;5031163;28;20190;-79
2024/01/13 14:58:23;;;;;;;3.70;3.50;;;6.00;99.90;7.20;101898.00;;;;5023593;28;20235;-79
2024/01/13 15:00:57;;;;;;;1.53;1.43;;;5.60;99.90;7.40;101843.00;;;;5014493;28;20217;-79
2024/01/13 15:03:33;;;;;;;0.60;0.60;;;5.50;99.90;8.70;101918.00;;;;5019368;28;20206;-79
2024/01/13 15:06:07;;;;;;;2.87;2.17;;;5.80;99.90;8.60;101921.00;;;;5027765;28;20270;-79
2024/01/13 15:08:42;;;;;;;9.67;7.00;;;5.80;99.90;8.00;101906.00;;;;5014570;28;20202;-74
2024/01/13 15:11:17;;;;;;;6.87;5.80;;;5.80;99.90;6.30;101865.00;;;;5030973;28;20180;-77
2024/01/13 15:13:54;;;;;;;5.50;4.93;;;5.10;99.90;6.70;101871.00;;;;5013262;28;20184;-73
2024/01/13 15:16:31;;;;;;;6.43;5.13;;;4.80;99.90;6.80;101870.00;;;;5031327;28;20246;-72
2024/01/13 15:19:02;;;;;;;2.13;2.03;;;4.90;99.90;7.50;101862.00;;;;5022991;28;20215;-76
2024/01/13 15:21:37;;;;;;;2.40;2.23;;;5.00;99.90;7.20;101878.00;;;;5016028;28;20554;-74
2024/01/13 15:24:11;;;;;;;10.70;8.77;;;5.20;99.90;6.80;101863.00;;;;5051057;28;20279;-76
2024/01/13 15:26:46;;;;;;;6.63;5.57;;;5.00;99.90;6.30;101845.00;;;;5021271;28;20685;-73
2024/01/13 15:29:17;;;;;;;9.83;6.37;;;4.80;99.90;6.50;101853.00;;;;5035231;28;20273;-74
2024/01/13 15:31:48;;;;;;;0.70;0.70;;;4.70;99.90;6.70;101779.00;;;;5035654;28;20242;-75
2024/01/13 15:34:20;;;;;;;3.47;3.10;;;4.70;99.90;6.80;101838.00;;;;5018639;28;20184;-77
2024/01/13 15:36:46;;;;;;;8.53;4.20;;;4.90;99.90;6.30;101844.00;;;;5034250;28;20193;-77
2024/01/13 15:39:16;;;;;;;8.00;3.87;;;4.70;99.90;6.40;101816.00;;;;5044012;28;20180;-77
2024/01/13 15:41:54;;;;;;;6.50;5.73;;;4.60;99.90;7.00;101821.00;;;;5065346;28;20183;-74
2024/01/13 15:44:23;;;;;;;2.93;1.27;;;4.80;99.90;6.70;101814.00;;;;5033534;28;20188;-73
2024/01/13 15:46:49;;;;;;;6.43;5.47;;;4.80;99.90;6.60;101817.00;;;;5018216;28;20634;-74
2024/01/13 15:49:20;;;;;;;4.53;3.37;;;4.70;99.90;6.40;101825.00;;;;5025424;28;20191;-76
2024/01/13 15:51:49;;;;;;;2.00;1.90;;;4.70;99.90;6.20;101803.00;;;;5030139;28;20445;-76
2024/01/13 15:54:21;;;;;;;15.23;8.53;;;4.50;99.90;6.60;101825.00;;;;5031811;28;20434;-79
2024/01/13 15:56:49;;;;;;;13.27;7.77;;;4.60;99.90;7.10;101802.00;;;;5030330;28;20699;-77
2024/01/13 15:59:26;;;;;;;2.33;2.23;;;4.80;99.90;6.90;101755.00;;;;5067013;28;20177;-78
2024/01/13 16:01:58;;;;;;;1.07;1.07;;;4.80;99.90;7.30;101810.00;;;;5021423;28;20218;-78
2024/01/13 16:04:31;;;;;;;1.50;1.40;;;5.00;99.90;6.10;101836.00;;;;5031492;28;20223;-77
2024/01/13 16:07:00;;;;;;;4.80;4.17;;;4.70;99.90;6.30;101819.00;;;;5017744;28;20187;-77
2024/01/13 16:09:36;;;;;;;0.93;0.50;;;4.60;99.90;6.40;101812.00;;;;5017474;28;20710;-75
2024/01/13 16:12:07;;;;;;;9.17;5.13;;;4.50;99.90;6.10;101807.00;;;;5033986;28;20271;-80
2024/01/13 16:14:35;;;;;;;5.33;5.00;;;4.40;99.90;6.40;101807.00;;;;5034446;28;20218;-80
2024/01/13 16:17:10;;;;;;;6.40;4.97;;;4.50;99.90;5.60;101803.00;;;;5042704;28;20197;-80
2024/01/13 16:19:42;;;;;;;0.70;0.70;;;4.30;99.90;6.10;101817.00;;;;5015986;28;20263;-80
2024/01/13 16:22:49;;;;;;;6.33;5.33;;;4.40;99.90;5.90;101807.00;;;;5027970;28;20192;-80
2024/01/13 16:25:17;;;;;;;8.17;7.33;;;4.40;99.90;6.10;101767.00;;;;5014031;28;20188;-80
2024/01/13 16:27:46;;;;;;;2.43;2.30;;;4.40;99.90;6.50;101822.00;;;;5020742;28;20254;-80
2024/01/13 16:30:14;;;;;;;4.20;3.80;;;4.50;99.90;5.50;101823.00;;;;5013039;28;20177;-80
2024/01/13 16:33:14;;;;;;;7.67;5.30;;;4.40;99.90;6.70;101817.00;;;;5033427;28;20213;-80
2024/01/13 16:36:08;;;;;;;7.20;4.73;;;4.50;99.90;6.60;101823.00;;;;5021650;28;20609;-80
2024/01/13 16:38:37;;;;;;;0.50;0.50;;;4.70;99.90;7.00;101839.00;;;;5009636;28;20630;-79
2024/01/13 16:41:03;;;;;;;1.53;1.43;;;4.80;99.90;7.10;101665.00;;;;5028427;28;20236;-81
2024/01/13 16:43:47;;;;;;;6.20;5.50;;;4.90;99.90;7.50;101834.00;;;;5048726;28;20195;-81
2024/01/13 16:46:16;;;;;;;1.67;1.13;;;5.10;99.90;6.60;101828.00;;;;5039623;28;20272;-81
2024/01/13 16:48:42;;;;;;;2.87;2.67;;;4.90;99.90;6.50;101826.00;;;;5030045;28;20197;-81
2024/01/13 16:51:17;;;;;;;4.77;3.70;;;4.70;99.90;6.30;101829.00;;;;5015222;28;20671;-80
2024/01/13 16:53:45;;;;;;;9.50;5.97;;;4.60;99.90;6.30;101825.00;;;;5011218;28;20220;-81
2024/01/13 16:56:14;;;;;;;4.83;4.10;;;4.60;99.90;6.30;101779.00;;;;5010966;28;20189;-80
2024/01/13 16:58:42;;;;;;;3.27;3.00;;;4.50;99.90;5.70;101835.00;;;;5026421;28;20739;-81
2024/01/13 17:01:09;;;;;;;5.13;4.70;;;4.30;99.90;5.90;101811.00;;;;5011648;28;20185;-80
2024/01/13 17:03:34;;;;;;;7.23;6.37;;;4.30;99.90;6.50;101818.00;;;;5032746;28;20187;-80
2024/01/13 17:06:01;;;;;;;8.20;4.87;;;4.40;99.90;5.40;101814.00;;;;5032699;28;20199;-80
2024/01/13 17:08:29;;;;;;;7.33;5.37;;;4.30;99.90;6.50;101823.00;;;;5016889;28;20585;-80
2024/01/13 17:11:13;;;;;;;4.27;3.17;;;4.50;99.90;5.40;101812.00;;;;5028339;28;20279;-80
2024/01/13 17:13:40;;;;;;;4.40;3.43;;;4.30;99.90;6.20;101786.00;;;;5031991;28;20197;-80
2024/01/13 17:16:11;;;;;;;0.40;0.40;;;4.30;99.90;7.30;101812.00;;;;5019997;28;20230;-81
2024/01/13 17:18:41;;;;;;;0.30;0.30;;;4.70;99.90;8.20;101833.00;;;;5032480;28;20192;-81
2024/01/13 17:21:07;;;;;;;0.60;0.60;;;5.20;99.90;8.30;101824.00;;;;5028037;28;20686;-80
2024/01/13 17:23:33;;;;;;;1.37;1.27;;;5.40;99.90;6.60;101818.00;;;;5032060;28;20270;-81
2024/01/13 17:26:08;;;;;;;1.13;1.13;;;4.90;99.90;6.50;101820.00;;;;5031767;28;20642;-80
2024/01/13 17:28:36;;;;;;;0.63;0.63;;;4.70;99.90;6.10;101788.00;;;;5031525;28;20194;-79
2024/01/13 17:31:20;;;;;;;5.80;5.30;;;4.30;99.90;7.10;101813.00;;;;5015015;28;20652;-81
2024/01/13 17:33:53;;;;;;;0.80;0.80;;;4.60;99.90;7.30;101823.00;;;;5031776;28;20185;-81
2024/01/13 17:36:25;;;;;;;3.50;2.00;;;4.80;99.90;7.40;101812.00;;;;5032298;28;20232;-81
2024/01/13 17:38:51;;;;;;;1.00;0.90;;;4.90;99.90;8.10;101797.00;;;;5039259;28;20182;-81
2024/01/13 17:41:17;;;;;;;1.03;0.83;;;5.10;99.90;7.40;101814.00;;;;5040577;28;20539;-79
2024/01/13 17:43:51;;;;;;;4.23;3.17;;;4.90;99.90;6.40;101817.00;;;;5033229;28;20177;-77
2024/01/13 17:46:23;;;;;;;13.10;6.03;;;4.50;99.90;6.50;101806.00;;;;5032522;28;20267;-82
2024/01/13 17:48:49;;;;;;;2.93;2.73;;;4.40;99.90;5.80;101809.00;;;;5030068;28;20235;-78
2024/01/13 17:51:25;;;;;;;1.07;1.07;;;4.20;99.90;6.00;101755.00;;;;5031095;28;20567;-78
2024/01/13 17:54:11;;;;;;;0.83;0.83;;;4.10;99.90;6.20;101781.00;;;;5019434;28;20190;-78
2024/01/13 17:56:50;;;;;;;1.40;1.40;;;4.30;99.90;6.50;101765.00;;;;5027086;28;20545;-78
2024/01/13 17:59:57;;;;;;;13.90;9.17;;;4.30;99.90;5.30;101796.00;;;;5015028;28;20184;-78
2024/01/13 18:02:25;;;;;;;0.87;0.87;;;4.00;99.90;5.20;101796.00;;;;5047631;28;20297;-74
2024/01/13 18:05:29;;;;;;;2.90;1.70;;;3.80;99.90;6.00;101806.00;;;;5033123;28;20685;-76
2024/01/13 18:08:35;;;;;;;2.57;2.37;;;3.80;99.90;7.20;101738.00;;;;5032731;28;20191;-77
2024/01/13 18:11:22;;;;;;;1.50;1.13;;;4.40;99.90;6.40;101801.00;;;;5027407;28;20197;-77
2024/01/13 18:13:50;;;;;;;5.37;2.60;;;4.40;99.90;5.40;101784.00;;;;5031824;28;20681;-77
2024/01/13 18:16:57;;;;;;;1.57;1.47;;;4.00;99.90;6.00;101801.00;;;;5032345;28;20192;-77
2024/01/13 18:19:23;;;;;;;11.20;7.27;;;3.90;99.90;5.80;101778.00;;;;5024713;28;21220;-77
2024/01/13 18:22:32;;;;;;;18.57;8.23;;;3.90;99.90;5.50;101790.00;;;;5012198;28;20202;-77
2024/01/13 18:25:35;;;;;;;0.60;0.60;;;3.70;99.90;5.90;101782.00;;;;5031713;28;20274;-77
2024/01/13 18:28:25;;;;;;;4.13;3.83;;;3.70;99.90;5.30;101742.00;;;;5031787;28;20717;-76
2024/01/13 18:31:11;;;;;;;14.13;8.20;;;3.80;99.90;4.80;101773.00;;;;5031723;28;20194;-77
2024/01/13 18:33:40;;;;;;;1.13;1.13;;;3.50;99.90;5.10;101750.00;;;;5031960;28;20322;-77
2024/01/13 18:39:44;;;;;;;9.67;6.87;;;3.80;99.90;5.00;101697.00;;;;5030700;28;20192;-76
2024/01/13 18:42:52;;;;;;;1.50;1.50;;;3.50;99.90;4.90;101761.00;;;;5043649;28;20183;-76
2024/01/13 18:45:29;;;;;;;0.97;0.97;;;3.40;99.90;5.70;101748.00;;;;5030243;28;20193;-76
2024/01/13 18:48:03;;;;;;;1.43;1.43;;;3.50;99.90;5.60;101736.00;;;;5015394;28;20179;-76
2024/01/13 18:50:37;;;;;;;0.53;0.53;;;3.60;99.90;6.50;101750.00;;;;5031913;28;20198;-76
2024/01/13 18:53:30;;;;;;;2.40;2.27;;;3.90;99.90;5.60;101719.00;;;;5031853;28;20198;-76
2024/01/13 18:56:19;;;;;;;2.13;1.73;;;3.70;99.90;5.60;101742.00;;;;5067527;28;20254;-76
2024/01/13 18:59:14;;;;;;;1.83;1.70;;;3.70;99.90;5.00;101746.00;;;;5025728;28;20202;-76
2024/01/13 19:02:08;;;;;;;10.53;9.40;;;3.40;99.90;4.50;101732.00;;;;5016082;28;20689;-77
2024/01/13 19:05:09;;;;;;;7.30;3.03;;;3.40;99.90;4.90;101711.00;;;;5013700;28;20205;-76
2024/01/13 19:07:40;;;;;;;1.77;1.60;;;3.30;99.90;4.80;101701.00;;;;5035345;28;20175;-75
2024/01/13 19:10:10;;;;;;;4.63;3.30;;;3.10;99.90;4.80;101702.00;;;;5030197;28;20546;-75
2024/01/13 19:12:39;;;;;;;1.00;0.97;;;3.20;99.90;5.40;101705.00;;;;5018056;28;20559;-72
2024/01/13 19:15:06;;;;;;;0.20;0.20;;;3.40;99.90;5.60;101718.00;;;;5018444;28;20210;-74
2024/01/13 19:17:33;;;;;;;0.87;0.87;;;3.50;99.90;6.40;101705.00;;;;5034741;28;20192;-75
2024/01/13 19:19:59;;;;;;;2.90;2.57;;;3.80;99.90;5.40;101709.00;;;;5018779;28;20730;-72